sensor_id;sensor_type;location;lat;lon;timestamp;pressure;altitude;pressure_sealevel;temperature;humidity
69772;BME280;57046;45.988;18.664;2022-10-16T00:01:52;101132.97;;;13.15;86.39
69772;BME280;57046;45.988;18.664;2022-10-16T00:04:18;101112.81;;;12.90;86.54
69772;BME280;57046;45.988;18.664;2022-10-16T00:06:43;101089.53;;;12.72;86.64
69772;BME280;57046;45.988;18.664;2022-10-16T00:09:08;101086.16;;;12.66;87.69
69772;BME280;57046;45.988;18.664;2022-10-16T00:11:36;101133.41;;;12.91;87.50
69772;BME280;57046;45.988;18.664;2022-10-16T00:14:05;101152.41;;;12.91;87.97
69772;BME280;57046;45.988;18.664;2022-10-16T00:16:31;101152.06;;;12.84;87.80
69772;BME280;57046;45.988;18.664;2022-10-16T00:18:57;101159.56;;;12.79;89.13
69772;BME280;57046;45.988;18.664;2022-10-16T00:21:25;101167.84;;;12.65;88.46
69772;BME280;57046;45.988;18.664;2022-10-16T00:23:52;101152.50;;;12.52;89.29
69772;BME280;57046;45.988;18.664;2022-10-16T00:26:18;101162.41;;;12.65;89.41
69772;BME280;57046;45.988;18.664;2022-10-16T00:28:50;101140.53;;;12.44;89.49
69772;BME280;57046;45.988;18.664;2022-10-16T00:31:17;101164.78;;;12.58;90.66
69772;BME280;57046;45.988;18.664;2022-10-16T00:33:42;101142.38;;;12.35;90.84
69772;BME280;57046;45.988;18.664;2022-10-16T00:36:11;101164.13;;;12.44;90.63
69772;BME280;57046;45.988;18.664;2022-10-16T00:38:36;101166.81;;;12.44;91.21
69772;BME280;57046;45.988;18.664;2022-10-16T00:41:02;101144.28;;;12.26;90.46
69772;BME280;57046;45.988;18.664;2022-10-16T00:46:21;101176.53;;;12.36;91.00
69772;BME280;57046;45.988;18.664;2022-10-16T00:49:00;101142.50;;;12.13;91.94
69772;BME280;57046;45.988;18.664;2022-10-16T00:51:31;101180.44;;;12.21;92.08
69772;BME280;57046;45.988;18.664;2022-10-16T00:53:57;101179.78;;;12.16;92.50
69772;BME280;57046;45.988;18.664;2022-10-16T00:56:24;101129.09;;;11.77;92.99
69772;BME280;57046;45.988;18.664;2022-10-16T00:58:49;101132.13;;;11.76;92.34
69772;BME280;57046;45.988;18.664;2022-10-16T01:01:14;101184.16;;;11.95;93.03
69772;BME280;57046;45.988;18.664;2022-10-16T01:03:40;101170.06;;;11.84;93.37
69772;BME280;57046;45.988;18.664;2022-10-16T01:08:55;101175.38;;;11.89;93.63
69772;BME280;57046;45.988;18.664;2022-10-16T01:11:30;101169.59;;;11.82;92.88
69772;BME280;57046;45.988;18.664;2022-10-16T01:14:01;101147.63;;;11.61;93.67
69772;BME280;57046;45.988;18.664;2022-10-16T01:16:39;101177.75;;;11.68;94.57
69772;BME280;57046;45.988;18.664;2022-10-16T01:21:57;101171.78;;;11.58;94.31
69772;BME280;57046;45.988;18.664;2022-10-16T01:24:38;101148.78;;;11.47;94.02
69772;BME280;57046;45.988;18.664;2022-10-16T01:27:16;101154.53;;;11.45;95.08
69772;BME280;57046;45.988;18.664;2022-10-16T01:32:55;101178.81;;;11.59;93.83
69772;BME280;57046;45.988;18.664;2022-10-16T01:35:26;101176.19;;;11.45;94.83
69772;BME280;57046;45.988;18.664;2022-10-16T01:38:15;101160.00;;;11.32;95.69
69772;BME280;57046;45.988;18.664;2022-10-16T01:40:49;101167.38;;;11.17;96.27
69772;BME280;57046;45.988;18.664;2022-10-16T01:43:19;101188.16;;;11.31;95.98
69772;BME280;57046;45.988;18.664;2022-10-16T05:31:05;101331.06;;;9.16;100.00
69772;BME280;57046;45.988;18.664;2022-10-16T05:33:49;101320.19;;;9.02;100.00
69772;BME280;57046;45.988;18.664;2022-10-16T05:36:33;101319.34;;;9.07;100.00
69772;BME280;57046;45.988;18.664;2022-10-16T05:39:17;101310.09;;;8.89;100.00
69772;BME280;57046;45.988;18.664;2022-10-16T05:42:04;101254.09;;;8.86;100.00
69772;BME280;57046;45.988;18.664;2022-10-16T05:44:48;101285.34;;;8.87;100.00
69772;BME280;57046;45.988;18.664;2022-10-16T05:47:32;101300.28;;;8.98;100.00
69772;BME280;57046;45.988;18.664;2022-10-16T05:50:16;101329.19;;;9.16;100.00
69772;BME280;57046;45.988;18.664;2022-10-16T05:53:00;101338.31;;;9.20;100.00
69772;BME280;57046;45.988;18.664;2022-10-16T05:55:51;101359.19;;;9.34;100.00
69772;BME280;57046;45.988;18.664;2022-10-16T05:58:36;101365.59;;;9.38;100.00
69772;BME280;57046;45.988;18.664;2022-10-16T06:01:21;101361.84;;;9.39;100.00
69772;BME280;57046;45.988;18.664;2022-10-16T06:04:06;101348.97;;;9.31;100.00
69772;BME280;57046;45.988;18.664;2022-10-16T06:06:50;101320.66;;;9.09;100.00
69772;BME280;57046;45.988;18.664;2022-10-16T06:09:34;101353.88;;;9.47;100.00
69772;BME280;57046;45.988;18.664;2022-10-16T06:12:19;101350.91;;;9.49;100.00
69772;BME280;57046;45.988;18.664;2022-10-16T06:15:03;101346.66;;;9.43;100.00
69772;BME280;57046;45.988;18.664;2022-10-16T06:17:47;101356.94;;;9.41;100.00
69772;BME280;57046;45.988;18.664;2022-10-16T06:20:31;101358.41;;;9.70;100.00
69772;BME280;57046;45.988;18.664;2022-10-16T06:23:15;101345.66;;;9.57;100.00
69772;BME280;57046;45.988;18.664;2022-10-16T06:26:25;101406.50;;;9.87;100.00
69772;BME280;57046;45.988;18.664;2022-10-16T06:29:10;101402.63;;;10.12;100.00
69772;BME280;57046;45.988;18.664;2022-10-16T06:31:55;101407.72;;;10.97;100.00
69772;BME280;57046;45.988;18.664;2022-10-16T06:34:39;101370.66;;;10.51;100.00
69772;BME280;57046;45.988;18.664;2022-10-16T06:37:26;101317.09;;;10.07;100.00
69772;BME280;57046;45.988;18.664;2022-10-16T06:40:12;101411.78;;;10.67;100.00
69772;BME280;57046;45.988;18.664;2022-10-16T06:42:38;101380.38;;;10.52;100.00
69772;BME280;57046;45.988;18.664;2022-10-16T06:45:03;101392.84;;;10.67;100.00
69772;BME280;57046;45.988;18.664;2022-10-16T06:47:29;101389.97;;;10.77;100.00
69772;BME280;57046;45.988;18.664;2022-10-16T06:49:54;101390.97;;;10.81;100.00
69772;BME280;57046;45.988;18.664;2022-10-16T06:52:20;101428.69;;;11.32;100.00
69772;BME280;57046;45.988;18.664;2022-10-16T06:54:45;101416.66;;;11.11;100.00
69772;BME280;57046;45.988;18.664;2022-10-16T06:57:10;101432.97;;;11.47;100.00
69772;BME280;57046;45.988;18.664;2022-10-16T06:59:35;101432.75;;;11.84;100.00
69772;BME280;57046;45.988;18.664;2022-10-16T07:02:01;101408.13;;;11.58;100.00
69772;BME280;57046;45.988;18.664;2022-10-16T07:04:26;101379.44;;;11.44;100.00
69772;BME280;57046;45.988;18.664;2022-10-16T07:06:52;101422.16;;;11.74;100.00
69772;BME280;57046;45.988;18.664;2022-10-16T07:09:17;101433.47;;;11.90;100.00
69772;BME280;57046;45.988;18.664;2022-10-16T07:11:43;101439.41;;;11.78;100.00
69772;BME280;57046;45.988;18.664;2022-10-16T07:14:16;101457.72;;;11.95;100.00
69772;BME280;57046;45.988;18.664;2022-10-16T07:16:42;101454.50;;;12.06;100.00
69772;BME280;57046;45.988;18.664;2022-10-16T07:19:08;101444.56;;;12.02;100.00
69772;BME280;57046;45.988;18.664;2022-10-16T07:21:34;101469.03;;;12.10;100.00
69772;BME280;57046;45.988;18.664;2022-10-16T07:23:59;101463.81;;;12.14;100.00
69772;BME280;57046;45.988;18.664;2022-10-16T07:26:26;101464.06;;;12.26;100.00
69772;BME280;57046;45.988;18.664;2022-10-16T07:28:52;101467.72;;;12.44;100.00
69772;BME280;57046;45.988;18.664;2022-10-16T07:31:19;101457.59;;;12.36;100.00
69772;BME280;57046;45.988;18.664;2022-10-16T07:33:45;101458.00;;;12.43;100.00
69772;BME280;57046;45.988;18.664;2022-10-16T07:36:12;101466.75;;;12.40;100.00
69772;BME280;57046;45.988;18.664;2022-10-16T07:38:37;101460.97;;;12.55;100.00
69772;BME280;57046;45.988;18.664;2022-10-16T07:41:05;101457.19;;;12.64;100.00
69772;BME280;57046;45.988;18.664;2022-10-16T07:43:31;101456.41;;;12.64;100.00
69772;BME280;57046;45.988;18.664;2022-10-16T07:45:57;101447.72;;;12.53;97.52
69772;BME280;57046;45.988;18.664;2022-10-16T07:48:23;101465.13;;;12.83;100.00
69772;BME280;57046;45.988;18.664;2022-10-16T07:50:48;101458.22;;;12.77;98.76
69772;BME280;57046;45.988;18.664;2022-10-16T07:53:14;101469.53;;;12.93;93.99
69772;BME280;57046;45.988;18.664;2022-10-16T07:55:40;101462.59;;;12.87;92.94
69772;BME280;57046;45.988;18.664;2022-10-16T07:58:06;101479.78;;;13.04;92.07
69772;BME280;57046;45.988;18.664;2022-10-16T08:00:31;101479.06;;;13.12;91.79
69772;BME280;57046;45.988;18.664;2022-10-16T08:02:57;101477.34;;;13.16;90.78
69772;BME280;57046;45.988;18.664;2022-10-16T08:05:23;101436.50;;;12.99;90.87
69772;BME280;57046;45.988;18.664;2022-10-16T08:07:49;101491.94;;;13.38;88.84
69772;BME280;57046;45.988;18.664;2022-10-16T08:10:16;101479.69;;;13.49;87.80
69772;BME280;57046;45.988;18.664;2022-10-16T08:12:42;101460.41;;;13.50;88.68
69772;BME280;57046;45.988;18.664;2022-10-16T08:15:08;101496.13;;;13.83;88.17
69772;BME280;57046;45.988;18.664;2022-10-16T08:17:33;101490.69;;;13.83;86.36
69772;BME280;57046;45.988;18.664;2022-10-16T08:19:59;101496.94;;;13.92;84.84
69772;BME280;57046;45.988;18.664;2022-10-16T08:22:24;101476.94;;;13.88;86.43
69772;BME280;57046;45.988;18.664;2022-10-16T08:24:49;101490.41;;;14.10;86.91
69772;BME280;57046;45.988;18.664;2022-10-16T08:27:14;101424.66;;;13.83;84.24
69772;BME280;57046;45.988;18.664;2022-10-16T08:29:40;101487.53;;;14.33;84.60
69772;BME280;57046;45.988;18.664;2022-10-16T08:32:05;101436.53;;;14.12;85.59
69772;BME280;57046;45.988;18.664;2022-10-16T08:34:30;101498.16;;;14.51;84.09
69772;BME280;57046;45.988;18.664;2022-10-16T08:36:56;101497.81;;;14.78;83.16
69772;BME280;57046;45.988;18.664;2022-10-16T08:39:21;101495.25;;;14.82;83.22
69772;BME280;57046;45.988;18.664;2022-10-16T08:50:08;101487.97;;;15.20;82.25
69772;BME280;57046;45.988;18.664;2022-10-16T08:52:39;101504.72;;;15.40;81.59
69772;BME280;57046;45.988;18.664;2022-10-16T08:55:05;101498.72;;;15.55;79.59
69772;BME280;57046;45.988;18.664;2022-10-16T08:57:31;101506.38;;;15.70;78.21
69772;BME280;57046;45.988;18.664;2022-10-16T09:00:00;101483.63;;;15.66;79.26
69772;BME280;57046;45.988;18.664;2022-10-16T09:02:33;101507.09;;;15.88;80.07
69772;BME280;57046;45.988;18.664;2022-10-16T09:08:03;101491.13;;;15.98;76.78
69772;BME280;57046;45.988;18.664;2022-10-16T09:11:09;101507.66;;;16.22;76.72
69772;BME280;57046;45.988;18.664;2022-10-16T09:14:01;101515.50;;;16.24;76.47
69772;BME280;57046;45.988;18.664;2022-10-16T09:16:40;101505.81;;;16.35;75.38
69772;BME280;57046;45.988;18.664;2022-10-16T09:21:46;101504.19;;;16.34;75.93
69772;BME280;57046;45.988;18.664;2022-10-16T09:24:15;101518.50;;;16.52;77.07
69772;BME280;57046;45.988;18.664;2022-10-16T09:26:41;101495.72;;;16.56;74.40
69772;BME280;57046;45.988;18.664;2022-10-16T09:29:10;101522.63;;;16.78;74.25
69772;BME280;57046;45.988;18.664;2022-10-16T09:31:36;101481.03;;;16.61;75.04
69772;BME280;57046;45.988;18.664;2022-10-16T09:34:03;101517.97;;;17.12;75.10
69772;BME280;57046;45.988;18.664;2022-10-16T09:36:30;101518.34;;;17.22;73.17
69772;BME280;57046;45.988;18.664;2022-10-16T09:39:08;101526.78;;;17.29;72.09
69772;BME280;57046;45.988;18.664;2022-10-16T09:41:42;101506.97;;;17.33;72.96
69772;BME280;57046;45.988;18.664;2022-10-16T09:44:27;101523.28;;;17.53;73.10
69772;BME280;57046;45.988;18.664;2022-10-16T09:47:14;101518.88;;;17.61;72.86
69772;BME280;57046;45.988;18.664;2022-10-16T09:49:53;101518.00;;;17.69;70.86
69772;BME280;57046;45.988;18.664;2022-10-16T09:52:19;101508.28;;;17.71;70.18
69772;BME280;57046;45.988;18.664;2022-10-16T09:54:53;101525.72;;;17.91;68.96
69772;BME280;57046;45.988;18.664;2022-10-16T09:57:20;101510.56;;;17.94;69.68
69772;BME280;57046;45.988;18.664;2022-10-16T09:59:53;101519.09;;;18.16;70.03
69772;BME280;57046;45.988;18.664;2022-10-16T10:02:39;101522.69;;;18.33;71.35
69772;BME280;57046;45.988;18.664;2022-10-16T10:05:06;101529.28;;;18.56;70.01
69772;BME280;57046;45.988;18.664;2022-10-16T10:07:43;101530.88;;;18.57;70.25
69772;BME280;57046;45.988;18.664;2022-10-16T10:10:27;101510.09;;;18.56;66.13
69772;BME280;57046;45.988;18.664;2022-10-16T10:12:54;101519.47;;;18.83;69.52
69772;BME280;57046;45.988;18.664;2022-10-16T10:15:20;101509.56;;;18.78;69.49
69772;BME280;57046;45.988;18.664;2022-10-16T10:17:48;101509.34;;;18.99;67.85
69772;BME280;57046;45.988;18.664;2022-10-16T10:22:51;101510.63;;;19.17;67.08
69772;BME280;57046;45.988;18.664;2022-10-16T10:38:16;101498.63;;;19.68;63.50
69772;BME280;57046;45.988;18.664;2022-10-16T10:41:11;101488.78;;;19.83;68.05
69772;BME280;57046;45.988;18.664;2022-10-16T10:44:20;101488.31;;;19.97;64.63
69772;BME280;57046;45.988;18.664;2022-10-16T10:46:54;101487.47;;;20.12;59.61
69772;BME280;57046;45.988;18.664;2022-10-16T10:55:10;101466.53;;;20.23;67.46
69772;BME280;57046;45.988;18.664;2022-10-16T11:00:19;101485.22;;;20.52;61.85
69772;BME280;57046;45.988;18.664;2022-10-16T11:02:52;101453.34;;;20.48;62.14
69772;BME280;57046;45.988;18.664;2022-10-16T11:08:18;101463.59;;;20.70;60.47
69772;BME280;57046;45.988;18.664;2022-10-16T11:10:50;101458.22;;;20.77;59.03
69772;BME280;57046;45.988;18.664;2022-10-16T11:13:19;101491.16;;;20.96;54.94
69772;BME280;57046;45.988;18.664;2022-10-16T11:15:48;101452.88;;;20.84;54.55
69772;BME280;57046;45.988;18.664;2022-10-16T11:18:32;101444.75;;;20.68;56.77
69772;BME280;57046;45.988;18.664;2022-10-16T11:21:05;101483.66;;;21.12;56.62
69772;BME280;57046;45.988;18.664;2022-10-16T11:26:25;101446.84;;;21.20;56.25
69772;BME280;57046;45.988;18.664;2022-10-16T11:28:55;101471.63;;;21.43;58.61
69772;BME280;57046;45.988;18.664;2022-10-16T11:31:43;101463.50;;;21.54;55.51
69772;BME280;57046;45.988;18.664;2022-10-16T11:39:21;101471.78;;;21.80;55.72
69772;BME280;57046;45.988;18.664;2022-10-16T11:41:53;101477.41;;;21.87;56.22
69772;BME280;57046;45.988;18.664;2022-10-16T11:49:39;101456.75;;;22.00;54.54
69772;BME280;57046;45.988;18.664;2022-10-16T11:52:25;101459.22;;;22.09;55.17
69772;BME280;57046;45.988;18.664;2022-10-16T11:55:05;101425.63;;;21.96;52.94
69772;BME280;57046;45.988;18.664;2022-10-16T11:57:45;101440.00;;;22.12;54.14
69772;BME280;57046;45.988;18.664;2022-10-16T12:08:44;101446.06;;;22.58;53.14
69772;BME280;57046;45.988;18.664;2022-10-16T12:17:25;101424.94;;;22.69;51.55
69772;BME280;57046;45.988;18.664;2022-10-16T12:20:23;101438.94;;;22.91;52.17
69772;BME280;57046;45.988;18.664;2022-10-16T12:22:56;101435.03;;;22.92;50.31
69772;BME280;57046;45.988;18.664;2022-10-16T12:28:22;101441.91;;;23.12;49.75
69772;BME280;57046;45.988;18.664;2022-10-16T12:30:55;101435.69;;;23.22;49.00
69772;BME280;57046;45.988;18.664;2022-10-16T12:33:30;101434.25;;;23.39;49.66
69772;BME280;57046;45.988;18.664;2022-10-16T12:36:02;101414.50;;;23.33;47.62
69772;BME280;57046;45.988;18.664;2022-10-16T12:38:45;101437.13;;;23.53;48.24
69772;BME280;57046;45.988;18.664;2022-10-16T12:41:11;101430.44;;;23.54;47.51
69772;BME280;57046;45.988;18.664;2022-10-16T12:46:22;101434.06;;;23.65;46.12
69772;BME280;57046;45.988;18.664;2022-10-16T12:48:48;101442.41;;;23.75;46.06
69772;BME280;57046;45.988;18.664;2022-10-16T13:14:44;101391.53;;;23.76;43.93
69772;BME280;57046;45.988;18.664;2022-10-16T13:20:12;101447.34;;;24.10;42.35
69772;BME280;57046;45.988;18.664;2022-10-16T13:28:11;101416.91;;;24.03;42.67
69772;BME280;57046;45.988;18.664;2022-10-16T13:30:51;101453.00;;;24.31;43.55
69772;BME280;57046;45.988;18.664;2022-10-16T13:33:20;101447.41;;;24.17;43.12
69772;BME280;57046;45.988;18.664;2022-10-16T13:35:58;101437.16;;;24.21;42.78
69772;BME280;57046;45.988;18.664;2022-10-16T13:38:26;101449.03;;;24.25;43.38
69772;BME280;57046;45.988;18.664;2022-10-16T13:41:01;101423.72;;;24.20;42.84
69772;BME280;57046;45.988;18.664;2022-10-16T13:43:39;101434.78;;;24.23;41.92
69772;BME280;57046;45.988;18.664;2022-10-16T13:46:12;101453.34;;;24.26;40.79
69772;BME280;57046;45.988;18.664;2022-10-16T13:48:38;101456.16;;;24.37;43.64
69772;BME280;57046;45.988;18.664;2022-10-16T13:51:13;101456.19;;;24.41;41.62
69772;BME280;57046;45.988;18.664;2022-10-16T13:53:39;101450.25;;;24.39;39.18
69772;BME280;57046;45.988;18.664;2022-10-16T13:56:07;101441.13;;;24.27;41.68
69772;BME280;57046;45.988;18.664;2022-10-16T13:58:33;101459.34;;;24.39;42.44
69772;BME280;57046;45.988;18.664;2022-10-16T14:01:04;101449.88;;;24.47;44.05
69772;BME280;57046;45.988;18.664;2022-10-16T14:03:30;101444.75;;;24.42;42.35
69772;BME280;57046;45.988;18.664;2022-10-16T14:05:58;101458.56;;;24.46;43.90
69772;BME280;57046;45.988;18.664;2022-10-16T14:08:25;101454.59;;;24.43;43.10
69772;BME280;57046;45.988;18.664;2022-10-16T14:10:54;101462.56;;;24.55;45.67
69772;BME280;57046;45.988;18.664;2022-10-16T14:13:27;101467.69;;;24.60;45.09
69772;BME280;57046;45.988;18.664;2022-10-16T14:15:53;101452.31;;;24.63;44.91
69772;BME280;57046;45.988;18.664;2022-10-16T14:18:21;101476.47;;;24.83;45.46
69772;BME280;57046;45.988;18.664;2022-10-16T14:20:49;101468.53;;;24.82;43.06
69772;BME280;57046;45.988;18.664;2022-10-16T14:25:46;101456.63;;;24.64;42.57
69772;BME280;57046;45.988;18.664;2022-10-16T14:28:15;101477.56;;;24.61;42.80
69772;BME280;57046;45.988;18.664;2022-10-16T14:33:33;101468.81;;;24.42;42.69
69772;BME280;57046;45.988;18.664;2022-10-16T14:36:12;101477.13;;;24.42;42.82
69772;BME280;57046;45.988;18.664;2022-10-16T14:38:40;101449.41;;;24.27;43.17
69772;BME280;57046;45.988;18.664;2022-10-16T14:41:06;101466.91;;;24.53;43.36
69772;BME280;57046;45.988;18.664;2022-10-16T14:43:34;101472.00;;;24.51;44.58
69772;BME280;57046;45.988;18.664;2022-10-16T14:46:03;101463.69;;;24.44;45.01
69772;BME280;57046;45.988;18.664;2022-10-16T14:48:30;101466.41;;;24.37;44.70
69772;BME280;57046;45.988;18.664;2022-10-16T14:50:55;101456.50;;;24.18;44.32
69772;BME280;57046;45.988;18.664;2022-10-16T14:53:21;101431.38;;;23.79;43.91
69772;BME280;57046;45.988;18.664;2022-10-16T14:55:47;101462.94;;;23.78;44.22
69772;BME280;57046;45.988;18.664;2022-10-16T14:58:18;101455.28;;;23.54;45.05
69772;BME280;57046;45.988;18.664;2022-10-16T15:00:44;101459.88;;;23.39;45.89
69772;BME280;57046;45.988;18.664;2022-10-16T15:03:10;101470.16;;;23.42;45.69
69772;BME280;57046;45.988;18.664;2022-10-16T15:05:35;101451.28;;;23.04;47.08
69772;BME280;57046;45.988;18.664;2022-10-16T15:08:00;101471.19;;;23.23;46.65
69772;BME280;57046;45.988;18.664;2022-10-16T15:10:27;101472.22;;;23.08;47.50
69772;BME280;57046;45.988;18.664;2022-10-16T15:12:54;101451.78;;;22.76;47.63
69772;BME280;57046;45.988;18.664;2022-10-16T15:17:51;101486.84;;;22.75;48.61
69772;BME280;57046;45.988;18.664;2022-10-16T15:20:16;101424.50;;;22.30;47.73
69772;BME280;57046;45.988;18.664;2022-10-16T15:22:41;101479.22;;;22.65;48.58
69772;BME280;57046;45.988;18.664;2022-10-16T15:28:23;101483.06;;;22.57;50.61
69772;BME280;57046;45.988;18.664;2022-10-16T15:30:51;101478.97;;;22.44;50.31
69772;BME280;57046;45.988;18.664;2022-10-16T15:33:19;101472.56;;;22.37;51.79
69772;BME280;57046;45.988;18.664;2022-10-16T15:35:50;101482.69;;;22.29;50.48
69772;BME280;57046;45.988;18.664;2022-10-16T15:38:17;101488.13;;;22.22;51.35
69772;BME280;57046;45.988;18.664;2022-10-16T15:40:42;101480.50;;;22.12;51.60
69772;BME280;57046;45.988;18.664;2022-10-16T15:43:08;101484.41;;;22.07;52.46
69772;BME280;57046;45.988;18.664;2022-10-16T15:45:33;101495.66;;;21.99;52.45
69772;BME280;57046;45.988;18.664;2022-10-16T15:47:58;101501.47;;;21.90;52.51
69772;BME280;57046;45.988;18.664;2022-10-16T15:50:24;101502.06;;;21.80;53.02
69772;BME280;57046;45.988;18.664;2022-10-16T15:52:50;101507.81;;;21.71;53.36
69772;BME280;57046;45.988;18.664;2022-10-16T15:55:15;101506.84;;;21.60;53.98
69772;BME280;57046;45.988;18.664;2022-10-16T15:57:41;101505.50;;;21.51;54.99
69772;BME280;57046;45.988;18.664;2022-10-16T16:00:09;101507.25;;;21.36;55.29
69772;BME280;57046;45.988;18.664;2022-10-16T16:02:34;101512.13;;;21.23;55.48
69772;BME280;57046;45.988;18.664;2022-10-16T16:05:00;101516.19;;;21.10;57.01
69772;BME280;57046;45.988;18.664;2022-10-16T16:07:25;101524.28;;;21.03;57.63
69772;BME280;57046;45.988;18.664;2022-10-16T16:09:50;101523.25;;;20.89;58.16
69772;BME280;57046;45.988;18.664;2022-10-16T16:12:16;101522.56;;;20.76;58.69
69772;BME280;57046;45.988;18.664;2022-10-16T16:14:41;101524.69;;;20.63;59.04
69772;BME280;57046;45.988;18.664;2022-10-16T16:17:06;101532.78;;;20.56;59.93
69772;BME280;57046;45.988;18.664;2022-10-16T16:19:32;101534.16;;;20.47;60.37
69772;BME280;57046;45.988;18.664;2022-10-16T16:21:58;101539.34;;;20.33;60.59
69772;BME280;57046;45.988;18.664;2022-10-16T16:24:23;101547.69;;;20.20;61.20
69772;BME280;57046;45.988;18.664;2022-10-16T16:26:48;101541.88;;;19.91;61.76
69772;BME280;57046;45.988;18.664;2022-10-16T16:29:15;101556.66;;;19.86;60.47
69772;BME280;57046;45.988;18.664;2022-10-16T16:31:41;101557.84;;;19.69;61.81
69772;BME280;57046;45.988;18.664;2022-10-16T16:34:07;101572.31;;;19.70;63.25
69772;BME280;57046;45.988;18.664;2022-10-16T16:36:33;101553.75;;;19.48;62.81
69772;BME280;57046;45.988;18.664;2022-10-16T16:38:59;101497.00;;;19.05;62.88
69772;BME280;57046;45.988;18.664;2022-10-16T16:41:27;101572.50;;;19.46;63.22
69772;BME280;57046;45.988;18.664;2022-10-16T16:43:54;101581.66;;;19.38;63.89
69772;BME280;57046;45.988;18.664;2022-10-16T16:46:20;101572.63;;;19.21;64.27
69772;BME280;57046;45.988;18.664;2022-10-16T16:48:46;101584.94;;;19.15;64.80
69772;BME280;57046;45.988;18.664;2022-10-16T16:51:14;101576.97;;;18.95;66.08
69772;BME280;57046;45.988;18.664;2022-10-16T16:53:41;101581.88;;;18.89;65.76
69772;BME280;57046;45.988;18.664;2022-10-16T16:56:07;101551.72;;;18.61;66.48
69772;BME280;57046;45.988;18.664;2022-10-16T16:58:32;101597.19;;;18.78;67.23
69772;BME280;57046;45.988;18.664;2022-10-16T17:00:58;101589.94;;;18.70;66.86
69772;BME280;57046;45.988;18.664;2022-10-16T17:03:24;101595.44;;;18.58;67.72
69772;BME280;57046;45.988;18.664;2022-10-16T17:06:09;101586.78;;;18.44;67.96
69772;BME280;57046;45.988;18.664;2022-10-16T17:08:35;101606.81;;;18.48;68.42
69772;BME280;57046;45.988;18.664;2022-10-16T17:11:00;101584.41;;;18.18;69.34
69772;BME280;57046;45.988;18.664;2022-10-16T17:13:33;101614.41;;;18.26;68.65
69772;BME280;57046;45.988;18.664;2022-10-16T17:15:59;101605.75;;;18.12;68.22
69772;BME280;57046;45.988;18.664;2022-10-16T17:18:24;101595.69;;;17.92;68.31
69772;BME280;57046;45.988;18.664;2022-10-16T17:20:50;101603.91;;;17.92;68.53
69772;BME280;57046;45.988;18.664;2022-10-16T17:23:17;101617.09;;;17.90;67.79
69772;BME280;57046;45.988;18.664;2022-10-16T17:25:43;101619.16;;;17.81;67.91
69772;BME280;57046;45.988;18.664;2022-10-16T17:28:10;101620.16;;;17.76;68.48
69772;BME280;57046;45.988;18.664;2022-10-16T17:30:35;101582.03;;;17.47;68.52
69772;BME280;57046;45.988;18.664;2022-10-16T17:33:01;101608.25;;;17.48;68.39
69772;BME280;57046;45.988;18.664;2022-10-16T17:35:27;101615.09;;;17.54;68.91
69772;BME280;57046;45.988;18.664;2022-10-16T17:37:52;101622.91;;;17.44;69.60
69772;BME280;57046;45.988;18.664;2022-10-16T17:40:18;101634.66;;;17.44;69.79
69772;BME280;57046;45.988;18.664;2022-10-16T17:42:43;101637.94;;;17.38;70.18
69772;BME280;57046;45.988;18.664;2022-10-16T17:45:09;101567.25;;;16.83;69.90
69772;BME280;57046;45.988;18.664;2022-10-16T17:47:34;101608.09;;;17.12;70.49
69772;BME280;57046;45.988;18.664;2022-10-16T17:50:00;101612.00;;;17.11;70.41
69772;BME280;57046;45.988;18.664;2022-10-16T17:52:25;101597.41;;;16.86;70.55
69772;BME280;57046;45.988;18.664;2022-10-16T17:54:50;101611.78;;;16.95;70.34
69772;BME280;57046;45.988;18.664;2022-10-16T17:57:16;101642.59;;;17.04;71.31
69772;BME280;57046;45.988;18.664;2022-10-16T17:59:41;101646.63;;;16.98;71.66
69772;BME280;57046;45.988;18.664;2022-10-16T18:02:08;101647.66;;;16.94;71.61
69772;BME280;57046;45.988;18.664;2022-10-16T18:04:34;101649.09;;;16.91;72.28
69772;BME280;57046;45.988;18.664;2022-10-16T18:06:59;101645.78;;;16.86;72.63
69772;BME280;57046;45.988;18.664;2022-10-16T18:09:24;101618.31;;;16.61;72.60
69772;BME280;57046;45.988;18.664;2022-10-16T18:11:50;101645.22;;;16.71;72.95
69772;BME280;57046;45.988;18.664;2022-10-16T18:14:16;101651.03;;;16.70;73.75
69772;BME280;57046;45.988;18.664;2022-10-16T18:16:42;101655.72;;;16.61;74.22
69772;BME280;57046;45.988;18.664;2022-10-16T18:19:09;101638.97;;;16.42;77.79
69772;BME280;57046;45.988;18.664;2022-10-16T18:21:34;101653.06;;;16.44;75.24
69772;BME280;57046;45.988;18.664;2022-10-16T18:24:00;101654.06;;;16.39;76.16
69772;BME280;57046;45.988;18.664;2022-10-16T18:26:26;101654.25;;;16.34;76.07
69772;BME280;57046;45.988;18.664;2022-10-16T18:28:55;101674.59;;;16.37;76.36
69772;BME280;57046;45.988;18.664;2022-10-16T18:31:21;101659.78;;;16.17;76.53
69772;BME280;57046;45.988;18.664;2022-10-16T18:33:47;101678.88;;;16.17;76.17
69772;BME280;57046;45.988;18.664;2022-10-16T18:36:13;101679.03;;;16.20;76.55
69772;BME280;57046;45.988;18.664;2022-10-16T18:38:39;101683.72;;;16.11;76.26
69772;BME280;57046;45.988;18.664;2022-10-16T18:41:04;101693.22;;;16.05;76.46
69772;BME280;57046;45.988;18.664;2022-10-16T18:43:34;101696.91;;;16.01;77.06
69772;BME280;57046;45.988;18.664;2022-10-16T18:46:11;101692.63;;;15.83;77.30
69772;BME280;57046;45.988;18.664;2022-10-16T18:48:38;101706.94;;;15.71;77.72